Date,TemperatureHighF,TemperatureAvgF,TemperatureLowF,DewpointHighF,DewpointAvgF,DewpointLowF,HumidityHigh,HumidityAvg,HumidityLow,PressureMaxIn,PressureMinIn,WindSpeedMaxMPH,WindSpeedAvgMPH,GustSpeedMaxMPH,PrecipitationSumIn
2013-12-1,56.7,54.8,51.8,54.2,51.4,44.1,99,89,69,30.61,30.35,27,9,27,0.32
2013-12-2,52.7,43.9,35.6,52.4,41.1,34.1,99,90,73,30.42,30.30,21,5,21,0.63
2013-12-3,39.9,33.5,26.4,38.0,30.8,20.0,99,90,59,30.59,30.40,11,2,11,0.00
2013-12-4,37.2,26.5,19.6,26.5,21.3,18.2,97,82,47,30.66,30.58,10,1,10,0.00
2013-12-5,29.7,23.1,16.2,24.4,19.3,15.0,97,86,68,30.63,30.49,6,1,6,0.00
2013-12-6,26.8,24.9,22.8,25.9,23.6,19.6,98,95,85,30.49,30.25,10,2,10,0.00
2013-12-7,28.6,18.5,9.7,19.5,12.8,7.6,94,79,51,30.76,30.36,10,2,10,0.00
2013-12-8,25.2,13.1,5.2,15.4,9.5,3.2,92,86,64,30.94,30.75,7,1,7,0.00
2013-12-9,27.0,19.0,8.2,23.6,16.0,6.5,94,88,77,30.97,30.86,8,2,8,0.00
2013-12-10,32.4,26.0,20.5,27.6,23.6,19.8,97,90,82,30.89,30.74,6,1,6,0.01
2013-12-11,32.9,21.6,16.0,28.4,20.3,15.3,97,95,82,30.74,30.55,5,1,5,0.00
2013-12-12,43.5,29.3,15.3,43.1,28.5,14.4,99,97,90,30.58,30.46,11,2,11,0.25
2013-12-13,53.2,43.1,34.9,49.8,42.2,34.6,99,97,86,30.78,30.57,8,1,8,0.02
2013-12-14,44.4,38.5,33.6,44.2,38.2,33.4,99,99,96,30.82,30.72,9,2,9,0.00
2013-12-15,48.4,42.1,36.5,46.8,41.6,36.2,99,98,91,30.82,30.77,8,1,8,0.01
2013-12-16,42.4,40.5,37.6,42.2,40.2,37.3,99,99,99,30.81,30.60,6,2,6,0.01
2013-12-17,37.8,35.3,33.3,37.3,35.0,33.0,99,99,99,30.60,30.52,6,2,6,0.01
2013-12-18,38.3,34.6,33.4,37.8,34.3,32.8,99,99,96,30.55,29.92,11,0,11,0.06
2013-12-19,34.0,31.6,27.9,33.4,31.1,27.6,99,98,95,30.14,29.95,7,1,7,0.00
2013-12-20,46.8,38.1,30.9,46.5,37.3,30.7,99,97,86,30.07,29.77,14,3,14,0.09
2013-12-21,52.2,48.9,46.2,49.9,47.5,45.3,99,95,87,30.09,29.81,10,2,10,0.01
2013-12-22,54.9,49.0,42.1,51.5,47.8,41.8,99,96,87,30.19,30.08,8,1,8,0.06
2013-12-23,52.9,46.6,35.1,51.7,46.0,34.6,99,98,93,30.36,30.16,12,2,12,0.11
2013-12-24,38.1,34.8,31.1,37.9,34.5,30.9,99,99,99,30.42,30.29,6,1,6,0.01
2013-12-25,35.6,33.8,31.6,35.4,33.5,31.4,99,99,99,30.31,30.21,7,2,7,0.00
2013-12-26,34.0,32.4,30.7,33.6,32.1,30.5,99,99,99,30.23,30.05,5,1,5,0.00
2013-12-27,35.4,33.2,30.4,35.2,32.9,30.1,99,99,99,30.22,30.03,8,1,8,0.00
2013-12-28,38.3,35.8,33.4,38.0,35.6,33.2,99,99,99,30.33,30.21,7,1,7,0.00
2013-12-29,39.4,36.9,34.9,38.5,36.5,34.6,99,98,94,30.29,30.11,6,2,6,0.00
2013-12-30,42.8,37.5,34.9,41.6,37.1,34.6,99,98,94,30.11,30.02,5,1,5,0.00
2013-12-31,49.3,40.0,33.8,46.1,39.1,33.6,99,97,87,30.17,30.06,5,1,5,0.01